createdAt,value
2023-03-17T00:03:16.488Z,61.1
2023-03-17T00:13:16.385Z,60.5
2023-03-17T00:18:16.367Z,61.5
2023-03-17T00:23:16.386Z,61.5
2023-03-17T00:33:16.380Z,62.3
2023-03-17T00:43:16.356Z,62
2023-03-17T00:48:16.358Z,61.5
2023-03-17T00:58:16.381Z,61.6
2023-03-17T01:03:16.368Z,61.5
2023-03-17T01:13:16.359Z,61
2023-03-17T01:18:16.470Z,61.4
2023-03-17T01:28:16.364Z,61.6
2023-03-17T01:38:16.385Z,61.7
2023-03-17T01:43:16.374Z,61.1
2023-03-17T01:53:16.360Z,61.7
2023-03-17T02:03:16.386Z,61.6
2023-03-17T02:08:16.361Z,60.9
2023-03-17T02:18:16.357Z,61.1
2023-03-17T02:23:16.388Z,60.2
2023-03-17T02:28:16.380Z,60.4
2023-03-17T02:38:16.364Z,61.5
2023-03-17T02:43:16.393Z,61.2
2023-03-17T02:53:16.359Z,60.8
2023-03-17T02:58:16.365Z,61
2023-03-17T03:08:16.455Z,60
2023-03-17T03:18:16.376Z,60.3
2023-03-17T03:23:16.368Z,60.5
2023-03-17T03:33:16.494Z,60.8
2023-03-17T03:38:16.379Z,60.5
2023-03-17T03:48:16.363Z,60.2
2023-03-17T03:53:16.454Z,60.2
2023-03-17T04:03:16.364Z,59.7
2023-03-17T04:08:16.372Z,59.5
2023-03-17T04:13:16.391Z,59.9
2023-03-17T04:18:16.362Z,59.8
2023-03-17T04:23:16.388Z,59.7
2023-03-17T04:33:16.386Z,59.8
2023-03-17T04:38:16.367Z,59.7
2023-03-17T04:43:16.376Z,59.7
2023-03-17T04:53:16.391Z,59.7
2023-03-17T05:03:26.327Z,59.1
2023-03-17T05:13:16.395Z,59.5
2023-03-17T05:23:16.371Z,60.3
2023-03-17T05:28:16.367Z,60.3
2023-03-17T05:33:16.420Z,60.5
2023-03-17T05:38:16.392Z,60.1
2023-03-17T05:48:16.384Z,59.9
2023-03-17T05:58:16.398Z,59.6
2023-03-17T06:03:16.425Z,59.7
2023-03-17T06:08:16.392Z,59.5
2023-03-17T06:13:16.393Z,59.7
2023-03-17T06:23:16.425Z,60
2023-03-17T06:33:16.394Z,60
2023-03-17T06:38:16.424Z,59.9
2023-03-17T06:48:16.416Z,59.5
2023-03-17T06:53:16.404Z,59.3
2023-03-17T07:03:16.402Z,59.5
2023-03-17T07:13:16.416Z,59.4
2023-03-17T07:18:16.424Z,59.5
2023-03-17T07:28:16.398Z,60
2023-03-17T07:38:16.423Z,60.6
2023-03-17T07:48:16.407Z,60.5
2023-03-17T07:53:16.401Z,58.7
2023-03-17T08:03:16.493Z,58.6
2023-03-17T08:13:16.467Z,59.6
2023-03-17T08:18:16.408Z,59.6
2023-03-17T08:28:16.495Z,59.8
2023-03-17T08:33:16.459Z,60.2
2023-03-17T08:43:16.410Z,60.2
2023-03-17T08:48:16.424Z,59.5
2023-03-17T08:53:16.405Z,60.5
2023-03-17T09:03:16.455Z,61.1
2023-03-17T09:13:16.431Z,61.6
2023-03-17T09:18:16.426Z,61.7
2023-03-17T09:28:16.411Z,61.8
2023-03-17T09:38:16.426Z,61.9
2023-03-17T09:43:16.403Z,61.9
2023-03-17T09:53:16.401Z,61.8
2023-03-17T10:03:16.422Z,61.9
2023-03-17T10:13:16.410Z,62
2023-03-17T10:18:16.409Z,62
2023-03-17T10:28:16.435Z,62.1
2023-03-17T10:33:16.403Z,62
2023-03-17T10:43:16.415Z,62
2023-03-17T10:48:16.431Z,62
2023-03-17T10:53:16.421Z,62
2023-03-17T11:03:16.437Z,62.1
2023-03-17T11:13:16.447Z,62.1
2023-03-17T11:18:16.426Z,62.2
2023-03-17T11:28:16.442Z,62.2
2023-03-17T11:38:16.454Z,62.2
2023-03-17T11:48:16.431Z,62.1
2023-03-17T11:53:16.436Z,60.6
2023-03-17T12:03:16.489Z,62
2023-03-17T12:13:16.428Z,62.1
2023-03-17T12:23:16.451Z,62.2
2023-03-17T12:33:16.435Z,62.2
2023-03-17T12:43:16.451Z,62.3
2023-03-17T12:48:16.430Z,62.2
2023-03-17T12:53:16.443Z,62.2
2023-03-17T12:58:16.451Z,62.4
2023-03-17T13:08:16.453Z,62.4
2023-03-17T13:13:16.433Z,62.4
2023-03-17T13:23:16.432Z,62.4
2023-03-17T13:28:16.455Z,62.4
2023-03-17T13:38:16.539Z,62.4
2023-03-17T13:48:16.526Z,62.5
2023-03-17T13:58:16.501Z,62.5
2023-03-17T14:08:16.543Z,62.5
2023-03-17T14:13:16.698Z,62.5
2023-03-17T14:23:16.514Z,62.6
2023-03-17T14:28:16.530Z,62.6
2023-03-17T14:38:16.504Z,62.6
2023-03-17T14:43:16.533Z,62.6
2023-03-17T14:53:16.590Z,62.7
2023-03-17T14:58:16.524Z,62.7
2023-03-17T15:08:16.515Z,62.7
2023-03-17T15:18:16.534Z,62.8
2023-03-17T15:23:16.613Z,62.8
2023-03-17T15:33:16.513Z,62.9
2023-03-17T15:38:16.538Z,62.8
2023-03-17T15:48:16.508Z,62.8
2023-03-17T15:53:16.511Z,62.8
2023-03-17T15:58:16.530Z,62.9
2023-03-17T16:08:16.503Z,62.9
2023-03-17T16:13:16.525Z,62.8
2023-03-17T16:18:16.537Z,63
2023-03-17T16:28:16.531Z,62.9
2023-03-17T16:33:16.511Z,62.8
2023-03-17T16:38:16.538Z,62.9
2023-03-17T16:48:16.509Z,63
2023-03-17T16:53:16.516Z,63
2023-03-17T17:03:16.767Z,62.8
2023-03-17T17:08:16.550Z,62.8
2023-03-17T17:18:16.519Z,62.8
2023-03-17T17:28:16.539Z,62.8
2023-03-17T17:38:16.519Z,62.9
2023-03-17T17:43:16.589Z,62.9
2023-03-17T17:53:16.539Z,63
2023-03-17T17:58:16.518Z,62.9
2023-03-17T18:03:16.523Z,62.9
2023-03-17T18:08:16.523Z,62.7
2023-03-17T18:13:16.544Z,62.7
2023-03-17T18:23:16.533Z,62.7
2023-03-17T18:28:16.512Z,62.8
2023-03-17T18:38:16.551Z,62.9
2023-03-17T18:48:16.518Z,62.9
2023-03-17T18:53:16.634Z,62.9
2023-03-17T19:03:16.590Z,63.3
2023-03-17T19:13:16.528Z,63.3
2023-03-17T19:23:16.537Z,63.2
2023-03-17T19:28:16.527Z,65.1
2023-03-17T19:38:16.520Z,63.7
2023-03-17T19:48:16.544Z,63.5
2023-03-17T19:58:16.518Z,64
2023-03-17T20:03:16.538Z,64.3
2023-03-17T20:13:16.676Z,64
2023-03-17T20:23:16.530Z,63.8
2023-03-17T20:28:16.536Z,63.7
2023-03-17T20:33:16.573Z,63.7
2023-03-17T20:43:16.919Z,63.8
2023-03-17T20:53:16.564Z,64.2
2023-03-17T20:58:16.548Z,64.6
2023-03-17T21:08:16.536Z,64.6
2023-03-17T21:18:16.559Z,64.4
2023-03-17T21:28:16.542Z,64.5
2023-03-17T21:33:16.579Z,64.3
2023-03-17T21:43:16.573Z,64.6
2023-03-17T21:48:16.566Z,65
2023-03-17T21:58:16.567Z,65.3
2023-03-17T22:08:16.579Z,65
2023-03-17T22:18:16.557Z,64.7
2023-03-17T22:28:16.614Z,65
2023-03-17T22:33:16.573Z,65
2023-03-17T22:38:16.583Z,69.1
2023-03-17T22:48:16.611Z,68.9
2023-03-17T22:53:16.606Z,68.4
2023-03-17T23:03:16.653Z,66.8
2023-03-17T23:13:16.607Z,65.9
2023-03-17T23:18:16.594Z,65.8
2023-03-17T23:28:16.582Z,65.7
2023-03-17T23:33:16.660Z,66.6
2023-03-17T23:43:16.605Z,67.5
2023-03-17T23:48:16.594Z,67.2
2023-03-17T23:58:16.642Z,66.5
